Urbana, Indiana
Current Conditions -  °F | °C
As of 10:15 PM on Sunday 21 Dec 2014 (Local Time) from KHHG Reporting Station
Clear Clear  
Wind Chill: 23°   Ceiling: Unl
Heat Index: 29°   Visibility: 7mi
Dew Point: 26°   Wind: 6mph
Humidity: 87%   Direction: 110°ESE
Pressure: 30.13"   Gusts: NA
Location:  40.9°N, 85.79°W
Report Text: KHHG 220315Z AUTO 11005KT 7SM CLR M02/M04 A3013 RMK AO2 T10171036
Loading
Personal Weather Stations






























Interactive Weather Map New forecast layout! Learn more

10-Day Weather Forecast

Advertisements
Track Severe Weather on mobile